Donald, Wisconsin
Current Conditions -  °F | °C
As of 10:35 AM on Saturday 22 Nov 2014 (Local Time) from KRCX Reporting Station
Haze Haze  
Wind Chill: 27°   Ceiling: 400
Heat Index: 35°   Visibility: 3mi
Dew Point: 33°   Wind: 10mph
Humidity: 94%   Direction: 220°SW
Pressure: 29.77"   Gusts: NA
Location:  45.2123°N, 90.8091°W
Report Text: KRCX 221635Z AUTO 22009KT 3SM BR OVC004 02/01 A2977 RMK AO2 T00150006
Loading
Personal Weather Stations






























Interactive Weather Map New forecast layout! Learn more

10-Day Weather Forecast

Advertisements
Track Severe Weather on mobile